^^
Station Historical Data
Daily Summary for July 7, 2017 Units:  Metric    English   Both
« Previous Day
Next Day »
Daily Weekly Monthly Yearly Custom
  High: Low: Average:
Temperature: 26.1 °C 9.3 °C 15.3 °C
Dew Point: 0.5 °C -2.9 °C -1.4 °C
Humidity: 48% 16% 34%
Wind Speed: 33.8km/h -1609.1km/h -24.9km/h
Wind Gust: 33.8km/h - -
Wind- -
Pressure: 1022.2 hPa 1016.8 hPa -
Precipitation: 0 mm    
Historical Graphs
 
 
Tabular Data for July 7, 2017
Time Temperature Dew Point Pressure Wind Wind Speed Wind Gust Humidity Rainfall Rate (Hourly) solar Conditions
00:00 16.2 °C -0.5 °C 1020.9 hPa Calm     32% 0 mm 0.0 W/m2
00:06 16.1 °C -0.6 °C 1020.9 hPa Calm     32% 0 mm 0.0 W/m2
00:12 15.8 °C -0.4 °C 1020.9 hPa Calm     33% 0 mm 0.0 W/m2
00:21 15.5 °C -0.7 °C 1020.5 hPa Calm     33% 0 mm 0.0 W/m2
00:26 15.4 °C -0.8 °C 1020.5 hPa Calm     33% 0 mm 0.0 W/m2
00:31 15.2 °C -0.6 °C 1020.5 hPa Calm     34% 0 mm 0.0 W/m2
00:36 14.7 °C -1 °C 1020.5 hPa Calm     34% 0 mm 0.0 W/m2
00:41 14.3 °C -1.4 °C 1020.5 hPa Calm     34% 0 mm 0.0 W/m2
00:46 13.7 °C -1.5 °C 1020.5 hPa Calm     35% 0 mm 0.0 W/m2
00:51 13.3 °C -1.5 °C 1020.5 hPa Calm     36% 0 mm 0.0 W/m2
00:57 12.9 °C -1.4 °C 1020.5 hPa Calm     37% 0 mm 0.0 W/m2
01:02 12.5 °C -1.4 °C 1020.5 hPa Calm     38% 0 mm 0.0 W/m2
01:07 12.2 °C -1.4 °C 1020.5 hPa Calm     39% 0 mm 0.0 W/m2
01:12 12.2 °C -1 °C 1020.5 hPa Calm     40% 0 mm 0.0 W/m2
01:17 12.2 °C -1 °C 1020.5 hPa Calm     40% 0 mm 0.0 W/m2
01:22 12.4 °C -1.2 °C 1020.5 hPa Calm     39% 0 mm 0.0 W/m2
01:27 12.5 °C -1.4 °C 1020.5 hPa Calm     38% 0 mm 0.0 W/m2
01:32 12.4 °C -1.5 °C 1020.5 hPa Calm     38% 0 mm 0.0 W/m2
01:38 12 °C -1.9 °C 1020.2 hPa Calm     38% 0 mm 0.0 W/m2
01:43 11.6 °C -1.9 °C 1020.2 hPa Calm     39% 0 mm 0.0 W/m2
01:48 11.4 °C -1.7 °C 1020.2 hPa Calm     40% 0 mm 0.0 W/m2
01:53 11.4 °C -1.4 °C 1020.2 hPa Calm     41% 0 mm 0.0 W/m2
01:59 11.5 °C -1.3 °C 1019.9 hPa Calm     41% 0 mm 0.0 W/m2
02:04 11.6 °C -1.2 °C 1019.9 hPa Calm     41% 0 mm 0.0 W/m2
02:09 11.6 °C -1.5 °C 1019.9 hPa Calm     40% 0 mm 0.0 W/m2
02:19 11.2 °C -1.6 °C 1019.9 hPa Calm     41% 0 mm 0.0 W/m2
02:25 11.1 °C -1.3 °C 1019.9 hPa Calm     42% 0 mm 0.0 W/m2
02:30 11.2 °C -1.2 °C 1019.9 hPa Calm     42% 0 mm 0.0 W/m2
02:35 11.2 °C -0.9 °C 1019.9 hPa Calm     43% 0 mm 0.0 W/m2
02:41 11.3 °C -0.8 °C 1019.9 hPa Calm     43% 0 mm 0.0 W/m2
02:46 11.4 °C -1.1 °C 1019.9 hPa Calm     42% 0 mm 0.0 W/m2
02:51 11.6 °C -0.9 °C 1019.9 hPa Calm     42% 0 mm 0.0 W/m2
02:56 11.7 °C -0.8 °C 1019.9 hPa Calm     42% 0 mm 0.0 W/m2
03:01 11.7 °C -0.8 °C 1019.9 hPa Calm     42% 0 mm 0.0 W/m2
03:06 11.7 °C -0.8 °C 1019.9 hPa Calm     42% 0 mm 0.0 W/m2
03:16 11.5 °C -1 °C 1019.9 hPa Calm     42% 0 mm 0.0 W/m2
03:21 11.3 °C -1.2 °C 1019.9 hPa Calm     42% 0 mm 0.0 W/m2
03:31 10.9 °C -1.2 °C 1019.9 hPa Calm     43% 0 mm 0.0 W/m2
03:36 10.8 °C -1.3 °C 1019.9 hPa Calm     43% 0 mm 0.0 W/m2
03:42 10.7 °C -1.4 °C 1019.9 hPa Calm     43% 0 mm 0.0 W/m2
03:47 10.5 °C -1.2 °C 1019.9 hPa Calm     44% 0 mm 0.0 W/m2
03:52 10.3 °C -1.1 °C 1019.9 hPa Calm     45% 0 mm 0.0 W/m2
03:57 10.4 °C -0.7 °C 1019.9 hPa Calm     46% 0 mm 0.0 W/m2
04:02 10.7 °C -1.1 °C 1019.9 hPa Calm     44% 0 mm 0.0 W/m2
04:08 10.6 °C -1.2 °C 1019.9 hPa Calm     44% 0 mm 0.0 W/m2
04:18 10.8 °C -1 °C 1019.9 hPa Calm     44% 0 mm 0.0 W/m2
04:28 10.4 °C -1.3 °C 1019.9 hPa Calm     44% 0 mm 0.0 W/m2
04:33 10.3 °C -1.4 °C 1019.9 hPa Calm     44% 0 mm 0.0 W/m2
04:38 10.2 °C -1.2 °C 1020.2 hPa Calm     45% 0 mm 0.0 W/m2
04:43 9.9 °C -1.5 °C 1019.9 hPa Calm     45% 0 mm 0.0 W/m2
04:49 9.9 °C -1.2 °C 1020.2 hPa Calm     46% 0 mm 0.0 W/m2
04:54 9.9 °C -1.2 °C 1020.2 hPa Calm     46% 0 mm 0.0 W/m2
04:59 9.9 °C -1.2 °C 1020.2 hPa Calm     46% 0 mm 0.0 W/m2
05:04 9.8 °C -1.3 °C 1020.2 hPa Calm     46% 0 mm 0.0 W/m2
05:10 9.8 °C -1 °C 1020.2 hPa Calm     47% 0 mm 0.0 W/m2
05:15 9.8 °C -1 °C 1020.2 hPa Calm     47% 0 mm 0.0 W/m2
05:20 9.8 °C -1 °C 1020.2 hPa Calm     47% 0 mm 0.0 W/m2
05:25 9.9 °C -0.9 °C 1020.5 hPa Calm     47% 0 mm 0.0 W/m2
05:30 9.8 °C -1.3 °C 1020.5 hPa Calm     46% 0 mm 0.0 W/m2
05:35 9.6 °C -1.2 °C 1020.5 hPa Calm     47% 0 mm 0.0 W/m2
05:41 9.6 °C -1.2 °C 1020.5 hPa Calm     47% 0 mm 0.0 W/m2
05:52 9.6 °C -1.2 °C 1020.5 hPa Calm     47% 0 mm 0.0 W/m2
06:11 10.9 °C -0.3 °C 1020.5 hPa Calm     46% 0 mm 0.0 W/m2
06:50 11 °C -0.8 °C 1020.9 hPa Calm     44% 0 mm 7.0 W/m2
07:06 10.1 °C -1 °C 1021.2 hPa Calm     46% 0 mm 16.0 W/m2
07:21 9.3 °C -1.2 °C 1021.2 hPa Calm     48% 0 mm 23.0 W/m2
07:37 9.9 °C -0.6 °C 1021.6 hPa Calm     48% 0 mm 81.0 W/m2
07:53 11.2 °C -0.3 °C 1021.6 hPa Calm     45% 0 mm 134.0 W/m2
08:45 16.4 °C 0.5 °C 1021.9 hPa Calm   6.4 km/h 34% 0 mm 301.0 W/m2
08:56 16.7 °C 0.3 °C 1021.9 hPa Calm     33% 0 mm 336.0 W/m2
09:09 16.8 °C 0 °C 1022.2 hPa North 1.4 km/h 6.4 km/h 32% 0 mm 359.0 W/m2
10:10 19.6 °C 0.1 °C 1021.9 hPa Calm     27% 0 mm 492.0 W/m2
10:40 21 °C -0.3 °C 1021.6 hPa North 3.2 km/h 11.3 km/h 24% 0 mm 536.0 W/m2
12:21 23.6 °C -0.7 °C 1019.5 hPa North 7.9 km/h 24.1 km/h 20% 0 mm 578.0 W/m2
13:21 25.3 °C -0.7 °C 1018.2 hPa NNW 33.8 km/h 33.8 km/h 18% 0 mm 526.0 W/m2
13:42 25.7 °C -1.2 °C 1017.8 hPa North 14.3 km/h 22.5 km/h 17% 0 mm 496.0 W/m2
13:55 25.6 °C -1.3 °C 1017.5 hPa North 14.3 km/h 29 km/h 17% 0 mm 475.0 W/m2
14:07 25.8 °C -1.9 °C 1017.5 hPa North 19.5 km/h 24.1 km/h 16% 0 mm 455.0 W/m2
14:21 25.9 °C -1.8 °C 1017.5 hPa North 16.3 km/h 20.9 km/h 16% 0 mm 427.0 W/m2
14:31 25.9 °C -1.8 °C 1017.2 hPa North 11.1 km/h 17.7 km/h 16% 0 mm 404.0 W/m2
14:38 26.1 °C -1.7 °C 1017.2 hPa North 14.3 km/h 17.7 km/h 16% 0 mm 380.0 W/m2
14:43 26.1 °C -1.7 °C 1017.2 hPa North 20.9 km/h 29 km/h 16% 0 mm 371.0 W/m2
15:31 26.1 °C -1.7 °C 1016.8 hPa North 13 km/h 17.7 km/h 16% 0 mm 251.0 W/m2
15:41 25.8 °C -1.9 °C 1016.8 hPa North 11.1 km/h 27.4 km/h 16% 0 mm 221.0 W/m2
17:08 24.1 °C -1.7 °C 1016.8 hPa Calm     18% 0 mm 7.0 W/m2
17:16 23.9 °C -1.1 °C 1016.8 hPa Calm     19% 0 mm 0.0 W/m2
17:24 23.6 °C -1.4 °C 1017.2 hPa Calm     19% 0 mm 0.0 W/m2
17:29 23.6 °C -1.4 °C 1017.2 hPa Calm     19% 0 mm 0.0 W/m2
17:34 23.6 °C -1.4 °C 1017.2 hPa Calm     19% 0 mm 0.0 W/m2
17:40 23.4 °C -1.5 °C 1017.2 hPa Calm     19% 0 mm 0.0 W/m2
17:47 23.2 °C -1.7 °C 1017.2 hPa Calm     19% 0 mm 0.0 W/m2
18:00 21.7 °C -2.2 °C 1017.2 hPa Calm     20% 0 mm 0.0 W/m2
18:11 20.3 °C -2.1 °C 1017.2 hPa Calm     22% 0 mm 0.0 W/m2
18:25 19.9 °C -1.9 °C 1017.2 hPa Calm   -1607.7 km/h 23% 0 mm 0.0 W/m2
18:35 19.9 °C -1.9 °C 1017.5 hPa North -1609.1 km/h -1607.7 km/h 23% 0 mm 0.0 W/m2
18:44 18.9 °C -2.1 °C 1017.5 hPa North -1609.1 km/h -1607.7 km/h 24% 0 mm 0.0 W/m2
18:56 18.7 °C -2.3 °C 1017.2 hPa Calm     24% 0 mm 0.0 W/m2
19:08 18.7 °C -2.3 °C 1017.2 hPa Calm     24% 0 mm 0.0 W/m2
19:24 18.3 °C -2.1 °C 1017.2 hPa Calm     25% 0 mm 0.0 W/m2
20:59 18.4 °C -2.5 °C 1018.2 hPa Calm     24% 0 mm 0.0 W/m2
21:17 17.7 °C -2.6 °C 1018.2 hPa Calm     25% 0 mm 0.0 W/m2
21:28 18.1 °C -2.2 °C 1018.2 hPa Calm     25% 0 mm 0.0 W/m2
21:44 17.4 °C -2.3 °C 1018.2 hPa Calm     26% 0 mm 0.0 W/m2
21:57 18.1 °C -2.2 °C 1018.2 hPa Calm     25% 0 mm 0.0 W/m2
22:06 17.6 °C -2.7 °C 1018.5 hPa Calm     25% 0 mm 0.0 W/m2
22:15 17.4 °C -2.8 °C 1018.5 hPa Calm     25% 0 mm 0.0 W/m2
22:21 17 °C -2.7 °C 1018.5 hPa Calm     26% 0 mm 0.0 W/m2
22:26 16.7 °C -2.9 °C 1018.5 hPa Calm     26% 0 mm 0.0 W/m2
22:36 16.5 °C -2.6 °C 1018.5 hPa Calm     27% 0 mm 0.0 W/m2
22:42 16.7 °C -2.4 °C 1018.5 hPa Calm     27% 0 mm 0.0 W/m2
22:47 16.8 °C -2.3 °C 1018.5 hPa Calm     27% 0 mm 0.0 W/m2
22:57 17.2 °C -2.5 °C 1018.5 hPa Calm     26% 0 mm 0.0 W/m2
23:02 17.3 °C -2.4 °C 1018.5 hPa Calm     26% 0 mm 0.0 W/m2
23:07 17.3 °C -2.4 °C 1018.5 hPa Calm     26% 0 mm 0.0 W/m2
23:17 17.2 °C -2.5 °C 1018.5 hPa Calm     26% 0 mm 0.0 W/m2
23:23 17.1 °C -2.6 °C 1018.5 hPa Calm     26% 0 mm 0.0 W/m2
23:28 16.8 °C -2.8 °C 1018.5 hPa Calm     26% 0 mm 0.0 W/m2
23:33 16.6 °C -2.5 °C 1018.5 hPa Calm     27% 0 mm 0.0 W/m2
23:38 16.5 °C -2.6 °C 1018.5 hPa Calm     27% 0 mm 0.0 W/m2
23:44 16.3 °C -2.7 °C 1018.2 hPa Calm     27% 0 mm 0.0 W/m2
23:49 16.1 °C -2.4 °C 1018.2 hPa Calm     28% 0 mm 0.0 W/m2
23:54 15.9 °C -2.6 °C 1018.2 hPa Calm     28% 0 mm 0.0 W/m2
Canyon Roadhouse, Fishriver Canyon, Namibia
Compliments of Weather Underground - 2.25 mb